sensor_id;sensor_type;location;lat;lon;timestamp;pressure;altitude;pressure_sealevel;temperature;humidity
74905;BME280;63465;50.862;6.220;2024-02-04T03:55:13;100716.06;;;9.48;100.00
74905;BME280;63465;50.862;6.220;2024-02-04T03:57:38;100721.84;;;9.54;100.00
74905;BME280;63465;50.862;6.220;2024-02-04T04:00:04;100722.22;;;9.47;100.00
74905;BME280;63465;50.862;6.220;2024-02-04T04:02:29;100722.84;;;9.52;100.00
74905;BME280;63465;50.862;6.220;2024-02-04T04:04:55;100711.50;;;9.51;100.00
74905;BME280;63465;50.862;6.220;2024-02-04T04:07:20;100705.44;;;9.51;100.00
74905;BME280;63465;50.862;6.220;2024-02-04T04:09:45;100702.19;;;9.28;100.00
74905;BME280;63465;50.862;6.220;2024-02-04T04:12:10;100707.50;;;9.27;100.00
74905;BME280;63465;50.862;6.220;2024-02-04T04:14:36;100721.91;;;9.35;100.00
74905;BME280;63465;50.862;6.220;2024-02-04T04:17:01;100721.66;;;9.23;100.00
74905;BME280;63465;50.862;6.220;2024-02-04T04:19:26;100726.44;;;9.32;100.00
74905;BME280;63465;50.862;6.220;2024-02-04T04:21:52;100714.28;;;9.31;100.00
74905;BME280;63465;50.862;6.220;2024-02-04T04:24:17;100725.38;;;9.36;100.00
74905;BME280;63465;50.862;6.220;2024-02-04T04:26:45;100729.97;;;9.31;100.00
74905;BME280;63465;50.862;6.220;2024-02-04T04:29:10;100719.81;;;9.25;100.00
74905;BME280;63465;50.862;6.220;2024-02-04T04:31:35;100712.81;;;9.25;100.00
74905;BME280;63465;50.862;6.220;2024-02-04T04:34:01;100712.28;;;9.36;100.00
74905;BME280;63465;50.862;6.220;2024-02-04T04:36:26;100711.34;;;9.37;100.00
74905;BME280;63465;50.862;6.220;2024-02-04T04:38:51;100705.59;;;9.48;100.00
74905;BME280;63465;50.862;6.220;2024-02-04T04:41:16;100704.72;;;9.47;100.00
74905;BME280;63465;50.862;6.220;2024-02-04T04:43:42;100720.81;;;9.40;100.00
74905;BME280;63465;50.862;6.220;2024-02-04T04:46:07;100723.59;;;9.54;100.00
74905;BME280;63465;50.862;6.220;2024-02-04T04:48:33;100727.22;;;9.51;100.00
74905;BME280;63465;50.862;6.220;2024-02-04T04:50:59;100736.06;;;9.49;100.00
74905;BME280;63465;50.862;6.220;2024-02-04T04:53:24;100744.41;;;9.57;100.00
74905;BME280;63465;50.862;6.220;2024-02-04T04:55:49;100749.31;;;9.63;100.00
74905;BME280;63465;50.862;6.220;2024-02-04T04:58:14;100749.25;;;9.47;100.00
74905;BME280;63465;50.862;6.220;2024-02-04T05:00:40;100749.91;;;9.33;100.00
74905;BME280;63465;50.862;6.220;2024-02-04T05:03:05;100742.84;;;9.35;100.00
74905;BME280;63465;50.862;6.220;2024-02-04T05:05:30;100730.22;;;9.44;100.00
74905;BME280;63465;50.862;6.220;2024-02-04T05:07:55;100723.59;;;9.37;100.00
74905;BME280;63465;50.862;6.220;2024-02-04T05:10:21;100720.97;;;9.37;100.00
74905;BME280;63465;50.862;6.220;2024-02-04T05:12:46;100705.41;;;9.33;100.00
74905;BME280;63465;50.862;6.220;2024-02-04T05:15:11;100715.66;;;9.38;100.00
74905;BME280;63465;50.862;6.220;2024-02-04T05:17:37;100696.50;;;9.38;100.00
74905;BME280;63465;50.862;6.220;2024-02-04T05:20:02;100690.09;;;9.43;100.00
74905;BME280;63465;50.862;6.220;2024-02-04T05:22:28;100700.25;;;9.32;100.00
74905;BME280;63465;50.862;6.220;2024-02-04T05:24:54;100683.78;;;9.30;100.00
74905;BME280;63465;50.862;6.220;2024-02-04T05:27:19;100688.72;;;9.36;100.00
74905;BME280;63465;50.862;6.220;2024-02-04T05:29:45;100682.56;;;9.37;100.00
74905;BME280;63465;50.862;6.220;2024-02-04T05:32:10;100678.25;;;9.19;100.00
74905;BME280;63465;50.862;6.220;2024-02-04T05:34:37;100678.25;;;9.19;100.00
74905;BME280;63465;50.862;6.220;2024-02-04T05:37:02;100687.47;;;9.26;100.00
74905;BME280;63465;50.862;6.220;2024-02-04T05:39:28;100682.53;;;9.20;100.00
74905;BME280;63465;50.862;6.220;2024-02-04T05:41:53;100684.88;;;9.26;100.00
74905;BME280;63465;50.862;6.220;2024-02-04T05:44:18;100686.09;;;9.36;100.00
74905;BME280;63465;50.862;6.220;2024-02-04T05:46:43;100687.03;;;9.35;100.00
74905;BME280;63465;50.862;6.220;2024-02-04T05:49:09;100678.56;;;9.30;100.00
74905;BME280;63465;50.862;6.220;2024-02-04T05:51:38;100677.63;;;9.31;100.00
74905;BME280;63465;50.862;6.220;2024-02-04T05:54:07;100681.56;;;9.22;100.00
74905;BME280;63465;50.862;6.220;2024-02-04T05:56:33;100672.53;;;9.28;100.00
74905;BME280;63465;50.862;6.220;2024-02-04T05:58:59;100671.00;;;9.24;100.00
74905;BME280;63465;50.862;6.220;2024-02-04T06:01:24;100662.00;;;9.29;100.00
74905;BME280;63465;50.862;6.220;2024-02-04T06:03:49;100664.47;;;9.32;100.00
74905;BME280;63465;50.862;6.220;2024-02-04T06:06:16;100673.00;;;9.36;100.00
74905;BME280;63465;50.862;6.220;2024-02-04T06:08:42;100670.31;;;9.38;100.00
74905;BME280;63465;50.862;6.220;2024-02-04T06:11:14;100675.78;;;9.33;100.00
74905;BME280;63465;50.862;6.220;2024-02-04T06:13:40;100676.72;;;9.32;100.00
74905;BME280;63465;50.862;6.220;2024-02-04T06:16:06;100679.63;;;9.26;100.00
74905;BME280;63465;50.862;6.220;2024-02-04T06:18:31;100667.31;;;9.28;100.00
74905;BME280;63465;50.862;6.220;2024-02-04T06:20:56;100680.94;;;9.34;100.00
74905;BME280;63465;50.862;6.220;2024-02-04T06:23:22;100678.63;;;9.28;100.00
74905;BME280;63465;50.862;6.220;2024-02-04T06:25:47;100676.72;;;9.32;100.00
74905;BME280;63465;50.862;6.220;2024-02-04T06:28:13;100665.31;;;9.16;100.00
74905;BME280;63465;50.862;6.220;2024-02-04T06:30:38;100670.53;;;9.16;100.00
74905;BME280;63465;50.862;6.220;2024-02-04T06:33:03;100659.75;;;9.22;100.00
74905;BME280;63465;50.862;6.220;2024-02-04T06:35:29;100656.59;;;9.15;100.00
74905;BME280;63465;50.862;6.220;2024-02-04T06:37:54;100656.84;;;9.11;100.00
74905;BME280;63465;50.862;6.220;2024-02-04T06:40:20;100658.69;;;9.09;100.00
74905;BME280;63465;50.862;6.220;2024-02-04T06:42:45;100657.06;;;9.23;100.00
74905;BME280;63465;50.862;6.220;2024-02-04T06:45:10;100660.06;;;9.16;100.00
74905;BME280;63465;50.862;6.220;2024-02-04T06:47:35;100656.75;;;9.12;100.00
74905;BME280;63465;50.862;6.220;2024-02-04T06:50:01;100654.75;;;9.17;100.00
74905;BME280;63465;50.862;6.220;2024-02-04T06:52:29;100652.84;;;9.21;100.00
74905;BME280;63465;50.862;6.220;2024-02-04T06:54:54;100658.38;;;9.15;100.00
74905;BME280;63465;50.862;6.220;2024-02-04T06:57:20;100666.53;;;9.26;100.00
74905;BME280;63465;50.862;6.220;2024-02-04T06:59:45;100660.91;;;9.16;100.00
74905;BME280;63465;50.862;6.220;2024-02-04T07:02:10;100659.28;;;9.14;100.00
74905;BME280;63465;50.862;6.220;2024-02-04T07:04:35;100652.28;;;9.14;100.00
74905;BME280;63465;50.862;6.220;2024-02-04T07:07:01;100654.84;;;9.16;100.00
74905;BME280;63465;50.862;6.220;2024-02-04T07:09:26;100655.59;;;9.18;100.00
74905;BME280;63465;50.862;6.220;2024-02-04T07:11:51;100635.22;;;9.07;100.00
74905;BME280;63465;50.862;6.220;2024-02-04T07:14:16;100640.38;;;9.09;100.00
74905;BME280;63465;50.862;6.220;2024-02-04T07:16:42;100641.59;;;9.19;100.00
74905;BME280;63465;50.862;6.220;2024-02-04T07:19:07;100657.91;;;9.24;100.00
74905;BME280;63465;50.862;6.220;2024-02-04T07:21:32;100648.00;;;9.30;100.00
74905;BME280;63465;50.862;6.220;2024-02-04T07:23:58;100643.91;;;9.25;100.00
74905;BME280;63465;50.862;6.220;2024-02-04T07:26:23;100650.84;;;9.26;100.00
74905;BME280;63465;50.862;6.220;2024-02-04T07:28:48;100634.75;;;9.33;100.00
74905;BME280;63465;50.862;6.220;2024-02-04T07:31:14;100645.53;;;9.27;100.00
74905;BME280;63465;50.862;6.220;2024-02-04T07:33:39;100643.22;;;9.39;100.00
74905;BME280;63465;50.862;6.220;2024-02-04T07:36:05;100656.31;;;9.39;100.00
74905;BME280;63465;50.862;6.220;2024-02-04T07:38:30;100660.22;;;9.47;100.00
74905;BME280;63465;50.862;6.220;2024-02-04T07:40:55;100655.00;;;9.47;100.00
74905;BME280;63465;50.862;6.220;2024-02-04T07:43:24;100659.38;;;9.47;100.00
74905;BME280;63465;50.862;6.220;2024-02-04T07:45:49;100654.06;;;9.48;100.00
74905;BME280;63465;50.862;6.220;2024-02-04T07:48:14;100664.78;;;9.44;100.00
74905;BME280;63465;50.862;6.220;2024-02-04T07:50:39;100664.84;;;9.42;100.00
74905;BME280;63465;50.862;6.220;2024-02-04T07:53:05;100671.31;;;9.35;100.00
74905;BME280;63465;50.862;6.220;2024-02-04T07:55:30;100669.16;;;9.43;100.00
74905;BME280;63465;50.862;6.220;2024-02-04T07:57:55;100669.47;;;9.37;100.00
74905;BME280;63465;50.862;6.220;2024-02-04T08:00:21;100668.78;;;9.33;100.00
74905;BME280;63465;50.862;6.220;2024-02-04T08:02:46;100667.78;;;9.36;100.00
74905;BME280;63465;50.862;6.220;2024-02-04T08:05:12;100663.78;;;9.29;100.00
74905;BME280;63465;50.862;6.220;2024-02-04T08:07:37;100659.91;;;9.19;100.00
74905;BME280;63465;50.862;6.220;2024-02-04T08:10:03;100639.75;;;9.38;100.00
74905;BME280;63465;50.862;6.220;2024-02-04T08:12:29;100631.88;;;9.55;100.00
74905;BME280;63465;50.862;6.220;2024-02-04T08:14:54;100635.56;;;9.51;100.00
74905;BME280;63465;50.862;6.220;2024-02-04T08:17:19;100644.81;;;9.41;100.00
74905;BME280;63465;50.862;6.220;2024-02-04T08:19:45;100638.97;;;9.36;100.00
74905;BME280;63465;50.862;6.220;2024-02-04T08:22:10;100644.13;;;9.38;100.00
74905;BME280;63465;50.862;6.220;2024-02-04T08:24:35;100640.91;;;9.50;100.00
74905;BME280;63465;50.862;6.220;2024-02-04T08:27:01;100649.50;;;9.52;100.00
74905;BME280;63465;50.862;6.220;2024-02-04T08:29:26;100633.28;;;9.45;100.00
74905;BME280;63465;50.862;6.220;2024-02-04T08:31:52;100654.75;;;9.34;100.00
74905;BME280;63465;50.862;6.220;2024-02-04T08:34:18;100646.69;;;9.39;100.00
74905;BME280;63465;50.862;6.220;2024-02-04T08:36:45;100647.81;;;9.51;100.00
74905;BME280;63465;50.862;6.220;2024-02-04T08:39:10;100647.66;;;9.54;100.00
74905;BME280;63465;50.862;6.220;2024-02-04T08:41:36;100665.16;;;9.53;100.00
74905;BME280;63465;50.862;6.220;2024-02-04T08:44:01;100660.28;;;9.63;100.00
74905;BME280;63465;50.862;6.220;2024-02-04T08:46:26;100660.53;;;9.41;100.00
74905;BME280;63465;50.862;6.220;2024-02-04T08:48:51;100659.22;;;9.50;100.00
74905;BME280;63465;50.862;6.220;2024-02-04T08:51:17;100645.13;;;9.52;100.00
74905;BME280;63465;50.862;6.220;2024-02-04T08:53:44;100647.97;;;9.48;100.00
74905;BME280;63465;50.862;6.220;2024-02-04T08:56:09;100635.66;;;9.50;100.00
74905;BME280;63465;50.862;6.220;2024-02-04T08:58:35;100633.72;;;9.53;100.00
74905;BME280;63465;50.862;6.220;2024-02-04T09:01:05;100636.66;;;9.47;100.00
74905;BME280;63465;50.862;6.220;2024-02-04T09:03:30;100636.25;;;9.55;100.00
74905;BME280;63465;50.862;6.220;2024-02-04T09:05:56;100646.59;;;9.41;100.00
74905;BME280;63465;50.862;6.220;2024-02-04T09:08:22;100645.25;;;9.66;100.00
74905;BME280;63465;50.862;6.220;2024-02-04T09:10:47;100644.66;;;9.44;100.00
74905;BME280;63465;50.862;6.220;2024-02-04T09:13:13;100663.16;;;9.41;100.00
74905;BME280;63465;50.862;6.220;2024-02-04T09:15:38;100676.16;;;9.43;100.00
74905;BME280;63465;50.862;6.220;2024-02-04T09:18:03;100669.00;;;9.46;100.00
74905;BME280;63465;50.862;6.220;2024-02-04T09:20:29;100673.00;;;9.53;100.00
74905;BME280;63465;50.862;6.220;2024-02-04T09:22:54;100689.72;;;9.51;100.00
74905;BME280;63465;50.862;6.220;2024-02-04T09:25:19;100687.25;;;9.65;100.00
74905;BME280;63465;50.862;6.220;2024-02-04T09:27:45;100695.03;;;9.49;100.00
74905;BME280;63465;50.862;6.220;2024-02-04T09:30:10;100691.03;;;9.59;100.00
74905;BME280;63465;50.862;6.220;2024-02-04T09:32:36;100678.16;;;9.55;100.00
74905;BME280;63465;50.862;6.220;2024-02-04T09:35:02;100687.78;;;9.54;100.00
74905;BME280;63465;50.862;6.220;2024-02-04T09:37:27;100691.41;;;9.52;100.00
74905;BME280;63465;50.862;6.220;2024-02-04T09:39:52;100692.63;;;9.62;100.00
74905;BME280;63465;50.862;6.220;2024-02-04T09:42:21;100697.66;;;9.49;100.00
74905;BME280;63465;50.862;6.220;2024-02-04T09:44:48;100686.31;;;9.66;100.00
74905;BME280;63465;50.862;6.220;2024-02-04T09:47:14;100680.06;;;9.68;100.00
74905;BME280;63465;50.862;6.220;2024-02-04T09:49:39;100676.16;;;9.60;100.00
74905;BME280;63465;50.862;6.220;2024-02-04T09:52:08;100672.81;;;9.74;100.00
74905;BME280;63465;50.862;6.220;2024-02-04T09:54:59;100670.97;;;9.76;100.00
74905;BME280;63465;50.862;6.220;2024-02-04T09:57:25;100679.38;;;9.65;100.00
74905;BME280;63465;50.862;6.220;2024-02-04T09:59:50;100661.13;;;9.63;100.00
74905;BME280;63465;50.862;6.220;2024-02-04T10:02:16;100665.53;;;9.46;100.00
74905;BME280;63465;50.862;6.220;2024-02-04T10:04:42;100664.06;;;9.40;100.00
74905;BME280;63465;50.862;6.220;2024-02-04T10:07:07;100644.81;;;9.41;100.00
74905;BME280;63465;50.862;6.220;2024-02-04T10:09:33;100646.53;;;9.42;100.00
74905;BME280;63465;50.862;6.220;2024-02-04T10:11:58;100643.59;;;9.31;100.00
74905;BME280;63465;50.862;6.220;2024-02-04T10:14:24;100656.31;;;9.39;100.00
74905;BME280;63465;50.862;6.220;2024-02-04T10:16:49;100657.38;;;9.52;100.00
74905;BME280;63465;50.862;6.220;2024-02-04T10:19:15;100670.38;;;9.36;100.00
74905;BME280;63465;50.862;6.220;2024-02-04T10:21:40;100669.06;;;9.62;100.00
74905;BME280;63465;50.862;6.220;2024-02-04T10:24:06;100670.38;;;9.36;100.00
74905;BME280;63465;50.862;6.220;2024-02-04T10:26:32;100660.00;;;9.34;100.00
74905;BME280;63465;50.862;6.220;2024-02-04T10:28:59;100651.38;;;9.32;100.00
74905;BME280;63465;50.862;6.220;2024-02-04T10:31:26;100649.13;;;9.42;100.00
74905;BME280;63465;50.862;6.220;2024-02-04T10:33:52;100662.69;;;9.50;100.00
74905;BME280;63465;50.862;6.220;2024-02-04T10:36:17;100656.38;;;9.54;100.00
74905;BME280;63465;50.862;6.220;2024-02-04T10:38:42;100668.63;;;9.54;100.00
74905;BME280;63465;50.862;6.220;2024-02-04T10:41:14;100669.59;;;9.68;100.00
74905;BME280;63465;50.862;6.220;2024-02-04T10:43:44;100682.56;;;9.54;100.00
74905;BME280;63465;50.862;6.220;2024-02-04T10:46:17;100674.22;;;9.63;100.00
74905;BME280;63465;50.862;6.220;2024-02-04T10:48:43;100678.53;;;9.64;100.00
74905;BME280;63465;50.862;6.220;2024-02-04T10:51:14;100687.00;;;9.70;100.00
74905;BME280;63465;50.862;6.220;2024-02-04T10:53:45;100688.78;;;9.69;100.00
74905;BME280;63465;50.862;6.220;2024-02-04T10:56:19;100680.00;;;10.03;100.00
74905;BME280;63465;50.862;6.220;2024-02-04T10:58:46;100678.69;;;9.61;100.00
74905;BME280;63465;50.862;6.220;2024-02-04T11:01:12;100686.78;;;9.57;100.00
74905;BME280;63465;50.862;6.220;2024-02-04T11:03:39;100677.00;;;9.60;100.00
74905;BME280;63465;50.862;6.220;2024-02-04T11:06:04;100678.84;;;9.58;100.00
74905;BME280;63465;50.862;6.220;2024-02-04T11:08:29;100669.69;;;9.67;100.00
74905;BME280;63465;50.862;6.220;2024-02-04T11:10:55;100668.50;;;9.73;100.00
74905;BME280;63465;50.862;6.220;2024-02-04T11:13:22;100659.56;;;9.77;100.00
74905;BME280;63465;50.862;6.220;2024-02-04T11:15:49;100671.66;;;9.79;100.00
74905;BME280;63465;50.862;6.220;2024-02-04T11:23:43;100661.25;;;9.78;100.00
74905;BME280;63465;50.862;6.220;2024-02-04T11:26:13;100661.50;;;9.73;100.00
74905;BME280;63465;50.862;6.220;2024-02-04T11:28:41;100648.25;;;9.76;100.00
74905;BME280;63465;50.862;6.220;2024-02-04T11:31:19;100634.91;;;9.81;100.00
74905;BME280;63465;50.862;6.220;2024-02-04T11:33:45;100638.75;;;9.91;100.00
74905;BME280;63465;50.862;6.220;2024-02-04T11:36:14;100632.31;;;9.63;100.00
74905;BME280;63465;50.862;6.220;2024-02-04T11:38:40;100615.31;;;9.55;100.00
74905;BME280;63465;50.862;6.220;2024-02-04T11:41:06;100615.00;;;9.61;100.00
74905;BME280;63465;50.862;6.220;2024-02-04T11:43:34;100609.28;;;9.70;100.00
74905;BME280;63465;50.862;6.220;2024-02-04T11:46:03;100607.50;;;9.71;100.00
74905;BME280;63465;50.862;6.220;2024-02-04T11:48:38;100596.09;;;9.72;100.00
74905;BME280;63465;50.862;6.220;2024-02-04T11:51:04;100581.16;;;9.74;100.00
74905;BME280;63465;50.862;6.220;2024-02-04T11:53:30;100586.31;;;9.75;100.00
74905;BME280;63465;50.862;6.220;2024-02-04T11:55:59;100594.78;;;9.96;100.00
74905;BME280;63465;50.862;6.220;2024-02-04T11:58:26;100604.53;;;10.10;100.00
74905;BME280;63465;50.862;6.220;2024-02-04T12:00:52;100596.25;;;9.68;100.00
74905;BME280;63465;50.862;6.220;2024-02-04T12:03:28;100596.69;;;9.44;100.00
74905;BME280;63465;50.862;6.220;2024-02-04T12:05:54;100582.53;;;9.48;100.00
74905;BME280;63465;50.862;6.220;2024-02-04T12:08:20;100580.69;;;9.32;100.00
74905;BME280;63465;50.862;6.220;2024-02-04T12:10:46;100589.63;;;9.46;100.00
74905;BME280;63465;50.862;6.220;2024-02-04T12:13:12;100592.47;;;9.41;100.00
74905;BME280;63465;50.862;6.220;2024-02-04T12:15:37;100586.34;;;9.25;100.00
74905;BME280;63465;50.862;6.220;2024-02-04T12:18:08;100583.03;;;9.21;100.00
74905;BME280;63465;50.862;6.220;2024-02-04T12:20:33;100561.31;;;9.19;100.00
74905;BME280;63465;50.862;6.220;2024-02-04T12:22:58;100589.78;;;9.43;100.00
74905;BME280;63465;50.862;6.220;2024-02-04T12:25:24;100589.56;;;9.30;100.00
74905;BME280;63465;50.862;6.220;2024-02-04T12:27:52;100584.94;;;9.35;100.00
74905;BME280;63465;50.862;6.220;2024-02-04T12:30:18;100577.31;;;9.30;100.00
74905;BME280;63465;50.862;6.220;2024-02-04T12:32:43;100582.41;;;9.16;100.00
74905;BME280;63465;50.862;6.220;2024-02-04T12:35:13;100588.25;;;9.39;100.00
74905;BME280;63465;50.862;6.220;2024-02-04T12:37:50;100587.75;;;9.48;100.00
74905;BME280;63465;50.862;6.220;2024-02-04T12:40:38;100588.09;;;9.42;100.00
74905;BME280;63465;50.862;6.220;2024-02-04T12:43:03;100588.09;;;9.42;100.00
74905;BME280;63465;50.862;6.220;2024-02-04T12:45:29;100583.84;;;9.39;100.00
74905;BME280;63465;50.862;6.220;2024-02-04T12:47:56;100579.53;;;9.38;100.00
74905;BME280;63465;50.862;6.220;2024-02-04T12:50:22;100577.69;;;9.40;100.00
74905;BME280;63465;50.862;6.220;2024-02-04T12:52:50;100568.75;;;9.44;100.00
74905;BME280;63465;50.862;6.220;2024-02-04T12:55:26;100569.03;;;9.55;100.00
74905;BME280;63465;50.862;6.220;2024-02-04T12:58:12;100569.59;;;9.45;100.00
74905;BME280;63465;50.862;6.220;2024-02-04T13:00:40;100566.69;;;9.33;100.00
74905;BME280;63465;50.862;6.220;2024-02-04T13:03:06;100565.59;;;9.38;100.00
74905;BME280;63465;50.862;6.220;2024-02-04T13:05:33;100560.91;;;9.44;100.00
74905;BME280;63465;50.862;6.220;2024-02-04T13:08:00;100556.59;;;9.43;100.00
74905;BME280;63465;50.862;6.220;2024-02-04T13:10:30;100553.66;;;9.49;100.00
74905;BME280;63465;50.862;6.220;2024-02-04T13:13:03;100570.53;;;9.44;100.00
74905;BME280;63465;50.862;6.220;2024-02-04T13:15:31;100562.09;;;9.54;100.00
74905;BME280;63465;50.862;6.220;2024-02-04T13:17:56;100569.97;;;9.54;100.00
74905;BME280;63465;50.862;6.220;2024-02-04T13:20:22;100557.34;;;9.78;100.00
74905;BME280;63465;50.862;6.220;2024-02-04T13:22:48;100560.78;;;9.63;100.00
74905;BME280;63465;50.862;6.220;2024-02-04T13:25:13;100554.19;;;9.72;100.00
74905;BME280;63465;50.862;6.220;2024-02-04T13:27:40;100558.59;;;9.71;100.00
74905;BME280;63465;50.862;6.220;2024-02-04T13:30:06;100555.22;;;9.85;100.00
74905;BME280;63465;50.862;6.220;2024-02-04T13:32:35;100554.72;;;9.78;100.00
74905;BME280;63465;50.862;6.220;2024-02-04T13:35:00;100545.25;;;9.76;100.00
74905;BME280;63465;50.862;6.220;2024-02-04T13:37:25;100541.69;;;9.77;100.00
74905;BME280;63465;50.862;6.220;2024-02-04T13:39:51;100539.06;;;9.77;100.00
74905;BME280;63465;50.862;6.220;2024-02-04T13:42:16;100540.41;;;9.68;100.00
74905;BME280;63465;50.862;6.220;2024-02-04T13:44:41;100539.84;;;9.79;100.00
74905;BME280;63465;50.862;6.220;2024-02-04T13:47:06;100537.97;;;9.81;100.00
74905;BME280;63465;50.862;6.220;2024-02-04T13:49:32;100539.84;;;9.79;100.00
74905;BME280;63465;50.862;6.220;2024-02-04T13:51:57;100546.09;;;9.92;100.00
74905;BME280;63465;50.862;6.220;2024-02-04T13:54:23;100550.34;;;9.94;100.00
74905;BME280;63465;50.862;6.220;2024-02-04T13:56:48;100562.25;;;9.84;100.00
74905;BME280;63465;50.862;6.220;2024-02-04T13:59:13;100564.63;;;9.89;100.00
74905;BME280;63465;50.862;6.220;2024-02-04T14:01:39;100553.53;;;9.84;100.00
74905;BME280;63465;50.862;6.220;2024-02-04T14:04:04;100563.63;;;9.58;100.00
74905;BME280;63465;50.862;6.220;2024-02-04T14:06:29;100562.63;;;9.61;100.00
74905;BME280;63465;50.862;6.220;2024-02-04T14:08:55;100562.09;;;9.54;100.00
74905;BME280;63465;50.862;6.220;2024-02-04T14:11:20;100557.31;;;9.62;100.00
74905;BME280;63465;50.862;6.220;2024-02-04T14:13:45;100546.59;;;9.67;100.00
74905;BME280;63465;50.862;6.220;2024-02-04T14:16:10;100553.00;;;9.61;100.00
74905;BME280;63465;50.862;6.220;2024-02-04T14:18:36;100555.84;;;9.57;100.00
74905;BME280;63465;50.862;6.220;2024-02-04T14:21:02;100541.75;;;9.59;100.00
74905;BME280;63465;50.862;6.220;2024-02-04T14:23:27;100550.66;;;9.73;100.00
74905;BME280;63465;50.862;6.220;2024-02-04T14:25:52;100557.91;;;9.67;100.00
74905;BME280;63465;50.862;6.220;2024-02-04T14:28:18;100539.75;;;9.64;100.00
74905;BME280;63465;50.862;6.220;2024-02-04T14:30:43;100546.25;;;9.73;100.00
74905;BME280;63465;50.862;6.220;2024-02-04T14:33:08;100543.38;;;9.62;100.00
74905;BME280;63465;50.862;6.220;2024-02-04T14:35:34;100547.25;;;9.55;100.00
74905;BME280;63465;50.862;6.220;2024-02-04T14:37:59;100554.84;;;9.59;100.00
74905;BME280;63465;50.862;6.220;2024-02-04T14:40:24;100548.94;;;9.56;100.00
74905;BME280;63465;50.862;6.220;2024-02-04T14:42:50;100540.84;;;9.60;100.00
74905;BME280;63465;50.862;6.220;2024-02-04T14:45:16;100537.13;;;9.64;100.00
74905;BME280;63465;50.862;6.220;2024-02-04T14:47:42;100530.59;;;9.56;100.00
74905;BME280;63465;50.862;6.220;2024-02-04T14:50:08;100534.41;;;9.66;100.00
74905;BME280;63465;50.862;6.220;2024-02-04T14:52:33;100538.88;;;9.64;100.00
74905;BME280;63465;50.862;6.220;2024-02-04T14:54:59;100544.03;;;9.50;100.00
74905;BME280;63465;50.862;6.220;2024-02-04T14:57:24;100538.97;;;9.62;100.00
74905;BME280;63465;50.862;6.220;2024-02-04T14:59:49;100543.81;;;9.70;100.00
74905;BME280;63465;50.862;6.220;2024-02-04T15:02:14;100543.38;;;9.78;100.00
74905;BME280;63465;50.862;6.220;2024-02-04T15:04:40;100540.84;;;9.76;100.00
74905;BME280;63465;50.862;6.220;2024-02-04T15:07:05;100523.88;;;9.67;100.00
74905;BME280;63465;50.862;6.220;2024-02-04T15:09:32;100523.00;;;9.67;100.00
74905;BME280;63465;50.862;6.220;2024-02-04T15:11:58;100532.41;;;9.71;100.00
74905;BME280;63465;50.862;6.220;2024-02-04T15:14:24;100538.75;;;9.83;100.00
74905;BME280;63465;50.862;6.220;2024-02-04T15:16:50;100525.66;;;9.83;100.00
74905;BME280;63465;50.862;6.220;2024-02-04T15:19:15;100535.88;;;9.87;100.00
74905;BME280;63465;50.862;6.220;2024-02-04T15:21:41;100535.78;;;9.89;100.00
74905;BME280;63465;50.862;6.220;2024-02-04T15:24:07;100531.22;;;9.92;100.00
74905;BME280;63465;50.862;6.220;2024-02-04T15:26:32;100524.03;;;9.80;100.00
74905;BME280;63465;50.862;6.220;2024-02-04T15:29:03;100542.72;;;9.90;100.00
74905;BME280;63465;50.862;6.220;2024-02-04T15:31:29;100539.84;;;9.79;100.00
74905;BME280;63465;50.862;6.220;2024-02-04T15:33:55;100535.97;;;9.86;100.00
74905;BME280;63465;50.862;6.220;2024-02-04T15:36:20;100534.16;;;9.71;100.00
74905;BME280;63465;50.862;6.220;2024-02-04T15:38:45;100533.06;;;9.59;100.00
74905;BME280;63465;50.862;6.220;2024-02-04T15:41:11;100541.84;;;9.58;100.00
74905;BME280;63465;50.862;6.220;2024-02-04T15:43:36;100530.28;;;9.62;100.00
74905;BME280;63465;50.862;6.220;2024-02-04T15:46:07;100526.81;;;9.61;100.00
74905;BME280;63465;50.862;6.220;2024-02-04T15:48:37;100525.13;;;9.60;100.00
74905;BME280;63465;50.862;6.220;2024-02-04T15:51:03;100534.56;;;9.47;100.00
74905;BME280;63465;50.862;6.220;2024-02-04T15:53:30;100532.97;;;9.60;100.00
74905;BME280;63465;50.862;6.220;2024-02-04T15:55:55;100520.66;;;9.62;100.00
74905;BME280;63465;50.862;6.220;2024-02-04T15:58:21;100528.59;;;9.61;100.00
74905;BME280;63465;50.862;6.220;2024-02-04T16:00:50;100523.88;;;9.67;100.00
74905;BME280;63465;50.862;6.220;2024-02-04T16:03:16;100521.00;;;9.72;100.00
74905;BME280;63465;50.862;6.220;2024-02-04T16:05:42;100525.38;;;9.72;100.00
74905;BME280;63465;50.862;6.220;2024-02-04T16:08:08;100513.03;;;9.58;100.00
74905;BME280;63465;50.862;6.220;2024-02-04T16:10:36;100512.53;;;9.51;100.00
74905;BME280;63465;50.862;6.220;2024-02-04T16:13:06;100510.75;;;9.52;100.00
74905;BME280;63465;50.862;6.220;2024-02-04T16:15:37;100501.13;;;9.52;100.00
74905;BME280;63465;50.862;6.220;2024-02-04T16:18:04;100503.91;;;9.65;100.00
74905;BME280;63465;50.862;6.220;2024-02-04T16:20:30;100511.44;;;9.71;100.00
74905;BME280;63465;50.862;6.220;2024-02-04T16:22:55;100505.53;;;9.67;100.00
74905;BME280;63465;50.862;6.220;2024-02-04T16:25:21;100501.81;;;9.72;100.00
74905;BME280;63465;50.862;6.220;2024-02-04T16:27:46;100497.50;;;9.71;100.00
74905;BME280;63465;50.862;6.220;2024-02-04T16:30:12;100503.31;;;9.60;100.00
74905;BME280;63465;50.862;6.220;2024-02-04T16:32:38;100498.75;;;9.63;100.00
74905;BME280;63465;50.862;6.220;2024-02-04T16:35:04;100495.47;;;9.60;100.00
74905;BME280;63465;50.862;6.220;2024-02-04T16:37:29;100491.66;;;9.65;100.00
74905;BME280;63465;50.862;6.220;2024-02-04T16:39:55;100498.59;;;9.66;100.00
74905;BME280;63465;50.862;6.220;2024-02-04T16:42:20;100506.38;;;9.68;100.00
74905;BME280;63465;50.862;6.220;2024-02-04T16:44:46;100485.75;;;9.78;100.00